Time;durP1;ratioP1;P1;durP2;ratioP2;P2;SDS_P1;SDS_P2;PMS_P1;PMS_P2;Temp;Humidity;BMP_temperature;BMP_pressure;BME280_temperature;BME280_humidity;BME280_pressure;Samples;Min_cycle;Max_cycle;Signal;HPM_P1;HPM_P2
2022/12/04 00:01:29;;;;;;;12.10;6.50;;;;;;;;;;5087625;28;20522;-72
2022/12/04 00:04:00;;;;;;;12.55;3.72;;;;;;;;;;5086774;28;20471;-73
2022/12/04 00:06:30;;;;;;;9.43;3.85;;;;;;;;;;5088280;28;20418;-73
2022/12/04 00:09:00;;;;;;;8.48;4.03;;;;;;;;;;5087979;28;20503;-73
2022/12/04 00:11:31;;;;;;;13.40;6.72;;;;;;;;;;5087815;28;20044;-73
2022/12/04 00:14:02;;;;;;;14.52;8.38;;;;;;;;;;5088459;28;20048;-73
2022/12/04 00:16:35;;;;;;;7.60;4.40;;;;;;;;;;5085795;28;20044;-73
2022/12/04 00:19:05;;;;;;;9.43;4.63;;;;;;;;;;5087599;28;20051;-74
2022/12/04 00:21:34;;;;;;;7.85;3.83;;;;;;;;;;5086916;28;20729;-73
2022/12/04 00:24:05;;;;;;;8.00;3.30;;;;;;;;;;5087771;28;20040;-73
2022/12/04 00:26:34;;;;;;;7.72;3.88;;;;;;;;;;5087393;28;20036;-74
2022/12/04 00:29:04;;;;;;;10.65;3.85;;;;;;;;;;5086726;28;20052;-73
2022/12/04 00:31:34;;;;;;;5.53;3.45;;;;;;;;;;5086852;28;20048;-73
2022/12/04 00:34:05;;;;;;;6.07;3.67;;;;;;;;;;5083396;28;20560;-73
2022/12/04 00:36:35;;;;;;;5.95;3.70;;;;;;;;;;5087029;28;20052;-73
2022/12/04 00:39:05;;;;;;;8.60;4.13;;;;;;;;;;5086329;28;20063;-77
2022/12/04 00:41:35;;;;;;;4.95;3.85;;;;;;;;;;5086115;28;20052;-73
2022/12/04 00:44:05;;;;;;;10.00;4.75;;;;;;;;;;5085321;28;20047;-71
2022/12/04 00:46:35;;;;;;;10.30;5.03;;;;;;;;;;5086192;28;20044;-72
2022/12/04 00:49:05;;;;;;;11.43;7.03;;;;;;;;;;5085668;28;20044;-72
2022/12/04 00:51:35;;;;;;;12.57;6.82;;;;;;;;;;5085546;28;20063;-72
2022/12/04 00:54:05;;;;;;;11.25;6.07;;;;;;;;;;5079399;28;20189;-72
2022/12/04 00:56:35;;;;;;;12.73;7.45;;;;;;;;;;5067082;28;20048;-72
2022/12/04 00:59:04;;;;;;;45.08;25.73;;;;;;;;;;5066613;28;20059;-72
2022/12/04 01:01:34;;;;;;;90.38;45.05;;;;;;;;;;5073746;28;20044;-72
2022/12/04 01:04:04;;;;;;;45.60;23.30;;;;;;;;;;5084380;28;20063;-73
2022/12/04 01:06:34;;;;;;;32.50;16.08;;;;;;;;;;5086105;28;20048;-73
2022/12/04 01:09:05;;;;;;;14.80;6.25;;;;;;;;;;5086580;28;20055;-73
2022/12/04 01:11:37;;;;;;;7.68;4.97;;;;;;;;;;5086326;28;20110;-72
2022/12/04 01:14:07;;;;;;;11.55;4.93;;;;;;;;;;5087040;28;20060;-73
2022/12/04 01:16:39;;;;;;;8.15;4.78;;;;;;;;;;5084873;28;20931;-73
2022/12/04 01:19:11;;;;;;;11.27;4.45;;;;;;;;;;5086591;28;20398;-72
2022/12/04 01:21:41;;;;;;;6.38;3.80;;;;;;;;;;5086873;28;20036;-72
2022/12/04 01:24:11;;;;;;;11.77;4.60;;;;;;;;;;5086833;28;20052;-72
2022/12/04 01:26:42;;;;;;;11.07;4.00;;;;;;;;;;5087336;28;20402;-72
2022/12/04 01:29:12;;;;;;;8.55;4.03;;;;;;;;;;5086786;28;20044;-72
2022/12/04 01:31:42;;;;;;;5.10;3.88;;;;;;;;;;5086202;28;20044;-72
2022/12/04 01:34:12;;;;;;;6.18;3.80;;;;;;;;;;5086754;28;20044;-72
2022/12/04 01:36:42;;;;;;;7.70;3.92;;;;;;;;;;5086548;28;20058;-76
2022/12/04 01:39:11;;;;;;;6.95;3.72;;;;;;;;;;5086633;28;20044;-72
2022/12/04 01:41:41;;;;;;;11.02;4.72;;;;;;;;;;5086495;28;20044;-72
2022/12/04 01:44:22;;;;;;;8.70;3.95;;;;;;;;;;5086687;28;20044;-72
2022/12/04 01:46:55;;;;;;;6.90;3.28;;;;;;;;;;5086848;28;20407;-72
2022/12/04 01:49:32;;;;;;;6.85;4.28;;;;;;;;;;5086798;28;20408;-73
2022/12/04 01:52:13;;;;;;;6.80;4.15;;;;;;;;;;5085912;28;20525;-73
2022/12/04 01:54:46;;;;;;;6.93;3.72;;;;;;;;;;5085887;28;20055;-73
2022/12/04 01:57:22;;;;;;;5.85;3.83;;;;;;;;;;5086424;28;20044;-73
2022/12/04 02:00:01;;;;;;;5.55;3.70;;;;;;;;;;5084941;28;20055;-73
2022/12/04 02:02:36;;;;;;;9.23;3.85;;;;;;;;;;5088079;28;20055;-73
2022/12/04 02:05:10;;;;;;;11.55;3.47;;;;;;;;;;5086558;28;20489;-73
2022/12/04 02:07:41;;;;;;;6.15;3.95;;;;;;;;;;5086286;28;20114;-73
2022/12/04 02:10:12;;;;;;;10.93;4.65;;;;;;;;;;5086077;28;20067;-72
2022/12/04 02:13:02;;;;;;;7.97;4.88;;;;;;;;;;5086086;28;20059;-72
2022/12/04 02:15:45;;;;;;;8.43;4.50;;;;;;;;;;5084746;28;20521;-73
2022/12/04 02:18:40;;;;;;;8.98;4.53;;;;;;;;;;5086828;28;20603;-74
2022/12/04 02:21:25;;;;;;;12.13;4.32;;;;;;;;;;5087134;28;20052;-73
2022/12/04 02:24:20;;;;;;;9.38;5.57;;;;;;;;;;5089569;28;20059;-73
2022/12/04 02:26:55;;;;;;;10.02;5.32;;;;;;;;;;5090433;28;20510;-73
2022/12/04 02:29:40;;;;;;;;;;;;;;;;;;5090561;28;20040;-72
2022/12/04 02:32:28;;;;;;;13.20;5.35;;;;;;;;;;5087856;28;19924;-72
2022/12/04 02:35:01;;;;;;;;;;;;;;;;;;5090795;28;20529;-77
2022/12/04 02:37:46;;;;;;;15.02;4.95;;;;;;;;;;5090687;28;19927;-73
2022/12/04 02:40:24;;;;;;;14.85;5.10;;;;;;;;;;5088248;28;20063;-72
2022/12/04 02:43:14;;;;;;;13.35;4.85;;;;;;;;;;5089844;28;20387;-74
2022/12/04 02:45:58;;;;;;;8.57;3.95;;;;;;;;;;5089573;28;20056;-74
2022/12/04 02:48:31;;;;;;;12.27;4.80;;;;;;;;;;5090098;28;20047;-72
2022/12/04 02:51:03;;;;;;;7.43;4.15;;;;;;;;;;5089691;28;20051;-72
2022/12/04 02:53:39;;;;;;;8.90;4.88;;;;;;;;;;5089731;28;20399;-73
2022/12/04 02:56:13;;;;;;;9.45;4.78;;;;;;;;;;5089508;28;20051;-75
2022/12/04 02:58:50;;;;;;;13.90;4.55;;;;;;;;;;5089521;28;20063;-73
2022/12/04 03:01:25;;;;;;;9.57;3.90;;;;;;;;;;5070044;28;20048;-73
2022/12/04 03:04:04;;;;;;;;;;;;;;;;;;5069718;28;20040;-73
2022/12/04 03:06:38;;;;;;;8.23;3.97;;;;;;;;;;5069034;28;20283;-73
2022/12/04 03:09:19;;;;;;;8.55;4.75;;;;;;;;;;5069262;28;20063;-73
2022/12/04 03:11:54;;;;;;;11.50;4.60;;;;;;;;;;5068026;28;20059;-72
2022/12/04 03:14:30;;;;;;;7.53;4.07;;;;;;;;;;5068206;28;20048;-73
2022/12/04 03:17:05;;;;;;;8.48;4.45;;;;;;;;;;5069283;28;20048;-73
2022/12/04 03:19:44;;;;;;;7.57;5.03;;;;;;;;;;5068878;28;20044;-73
2022/12/04 03:22:18;;;;;;;10.00;4.70;;;;;;;;;;5068524;28;20392;-74
2022/12/04 03:24:51;;;;;;;9.90;5.22;;;;;;;;;;5068983;28;20048;-73
2022/12/04 03:27:57;;;;;;;9.63;5.05;;;;;;;;;;5068191;28;20052;-72
2022/12/04 03:30:35;;;;;;;10.98;5.28;;;;;;;;;;5066006;28;20056;-73
2022/12/04 03:33:12;;;;;;;9.68;5.18;;;;;;;;;;5068228;28;20044;-72
2022/12/04 03:36:06;;;;;;;8.07;4.88;;;;;;;;;;5069415;28;20045;-73
2022/12/04 03:38:39;;;;;;;10.70;5.03;;;;;;;;;;5060074;28;20063;-75
2022/12/04 03:41:29;;;;;;;10.85;5.50;;;;;;;;;;5068451;28;20053;-72
2022/12/04 03:44:13;;;;;;;8.18;5.13;;;;;;;;;;5068242;28;20048;-73
2022/12/04 03:47:01;;;;;;;9.70;5.38;;;;;;;;;;5068604;28;20045;-72
2022/12/04 03:49:37;;;;;;;10.65;5.00;;;;;;;;;;5068856;28;20518;-73
2022/12/04 03:52:56;;;;;;;10.50;5.38;;;;;;;;;;5068884;28;20048;-72
2022/12/04 03:55:34;;;;;;;8.88;5.20;;;;;;;;;;4997261;28;20059;-73
2022/12/04 03:58:09;;;;;;;11.50;5.95;;;;;;;;;;5068449;28;20056;-73
2022/12/04 04:00:42;;;;;;;9.75;5.68;;;;;;;;;;5066340;28;20083;-73
2022/12/04 04:03:23;;;;;;;7.90;4.95;;;;;;;;;;5067837;28;20526;-73
2022/12/04 04:06:15;;;;;;;10.02;5.38;;;;;;;;;;5067727;28;20502;-72
2022/12/04 04:08:51;;;;;;;8.77;5.32;;;;;;;;;;5068178;28;20516;-72
2022/12/04 04:11:39;;;;;;;12.45;6.47;;;;;;;;;;5066425;28;20045;-73
2022/12/04 04:25:54;;;;;;;11.80;5.35;;;;;;;;;;5067496;28;20052;-73
2022/12/04 04:28:35;;;;;;;8.60;5.10;;;;;;;;;;5067862;28;20043;-73
2022/12/04 04:31:12;;;;;;;;;;;;;;;;;;5067935;28;20071;-73
2022/12/04 04:34:03;;;;;;;8.23;5.35;;;;;;;;;;5067699;28;20418;-73
2022/12/04 04:36:38;;;;;;;11.55;5.90;;;;;;;;;;5067252;28;20048;-73
2022/12/04 04:39:29;;;;;;;11.43;5.93;;;;;;;;;;5067414;28;20057;-72
2022/12/04 04:42:06;;;;;;;12.05;6.75;;;;;;;;;;5066693;28;20040;-72
2022/12/04 04:44:50;;;;;;;13.10;6.93;;;;;;;;;;5066274;28;20047;-73
2022/12/04 04:47:45;;;;;;;10.10;6.70;;;;;;;;;;5067353;28;20414;-73
2022/12/04 04:50:18;;;;;;;14.68;6.85;;;;;;;;;;5067622;28;20051;-72
2022/12/04 04:52:53;;;;;;;12.98;7.50;;;;;;;;;;5066680;28;20408;-72
2022/12/04 04:55:23;;;;;;;17.58;8.00;;;;;;;;;;5067067;28;20044;-73
2022/12/04 04:57:53;;;;;;;11.40;7.07;;;;;;;;;;5066452;28;20070;-73
2022/12/04 05:00:23;;;;;;;11.70;7.15;;;;;;;;;;5067038;28;20510;-72
2022/12/04 05:02:55;;;;;;;12.30;7.07;;;;;;;;;;5067235;28;20041;-72
2022/12/04 05:05:25;;;;;;;17.30;7.57;;;;;;;;;;5066907;28;20048;-72
2022/12/04 05:07:55;;;;;;;12.43;7.88;;;;;;;;;;5066802;28;20052;-72
2022/12/04 05:10:26;;;;;;;15.50;8.13;;;;;;;;;;5066846;28;20053;-72
2022/12/04 05:12:56;;;;;;;12.88;7.03;;;;;;;;;;5066420;28;20040;-73
2022/12/04 05:15:25;;;;;;;13.00;7.18;;;;;;;;;;5066652;28;20052;-72
2022/12/04 05:17:55;;;;;;;20.08;8.43;;;;;;;;;;5067060;28;20048;-74
2022/12/04 05:20:25;;;;;;;12.50;7.50;;;;;;;;;;5066372;28;20411;-73
2022/12/04 05:22:55;;;;;;;12.48;7.85;;;;;;;;;;5066381;28;20040;-72
2022/12/04 05:25:25;;;;;;;13.40;7.72;;;;;;;;;;5066407;28;20059;-72
2022/12/04 05:27:54;;;;;;;17.60;7.55;;;;;;;;;;5064440;28;20047;-73
2022/12/04 05:30:24;;;;;;;14.70;8.05;;;;;;;;;;5066337;28;20045;-73
2022/12/04 05:32:54;;;;;;;23.73;10.13;;;;;;;;;;5066528;28;20521;-73
2022/12/04 05:35:24;;;;;;;18.58;9.60;;;;;;;;;;5065315;28;20526;-73
2022/12/04 05:37:54;;;;;;;18.75;12.15;;;;;;;;;;5065107;28;20436;-72
2022/12/04 05:40:24;;;;;;;19.60;10.82;;;;;;;;;;5066085;28;20063;-72
2022/12/04 05:42:54;;;;;;;20.38;10.75;;;;;;;;;;5066464;28;20048;-73
2022/12/04 05:45:24;;;;;;;21.45;11.55;;;;;;;;;;5064859;28;20041;-73
2022/12/04 05:47:56;;;;;;;19.25;12.52;;;;;;;;;;5066428;28;20041;-72
2022/12/04 05:50:26;;;;;;;24.80;12.90;;;;;;;;;;5066506;28;20048;-73
2022/12/04 05:52:56;;;;;;;23.63;13.88;;;;;;;;;;5066675;28;20056;-73
2022/12/04 05:55:26;;;;;;;20.02;13.27;;;;;;;;;;5065907;28;20036;-73
2022/12/04 05:57:57;;;;;;;32.05;15.50;;;;;;;;;;5066291;28;20051;-72
2022/12/04 06:00:27;;;;;;;28.10;15.63;;;;;;;;;;5065927;28;20052;-73
2022/12/04 06:02:57;;;;;;;25.55;14.98;;;;;;;;;;5066785;28;20059;-73
2022/12/04 06:05:28;;;;;;;30.20;15.95;;;;;;;;;;5066147;28;20071;-71
2022/12/04 06:07:58;;;;;;;25.00;15.63;;;;;;;;;;5065913;28;20064;-73
2022/12/04 06:10:28;;;;;;;26.13;15.80;;;;;;;;;;5066095;28;20043;-72
2022/12/04 06:12:58;;;;;;;25.85;16.10;;;;;;;;;;5065964;28;20059;-73
2022/12/04 06:15:28;;;;;;;25.77;15.82;;;;;;;;;;5066002;28;20053;-72
2022/12/04 06:17:59;;;;;;;27.65;15.77;;;;;;;;;;5066133;28;20052;-73
2022/12/04 06:20:28;;;;;;;27.00;16.40;;;;;;;;;;5065697;28;20577;-73
2022/12/04 06:22:58;;;;;;;28.95;15.13;;;;;;;;;;5066011;28;20055;-73
2022/12/04 06:25:28;;;;;;;24.80;15.45;;;;;;;;;;5066533;28;20060;-72
2022/12/04 06:27:58;;;;;;;24.77;13.82;;;;;;;;;;5066207;28;20412;-73
2022/12/04 06:30:29;;;;;;;24.13;13.68;;;;;;;;;;5065898;28;20549;-73
2022/12/04 06:32:59;;;;;;;24.45;15.65;;;;;;;;;;5065659;28;20053;-72
2022/12/04 06:35:29;;;;;;;26.17;15.13;;;;;;;;;;5064373;28;20059;-72
2022/12/04 06:37:58;;;;;;;21.08;13.68;;;;;;;;;;5065180;28;20048;-74
2022/12/04 06:40:28;;;;;;;24.90;15.02;;;;;;;;;;5064449;28;20514;-73
2022/12/04 06:42:58;;;;;;;22.50;14.07;;;;;;;;;;5065526;28;20044;-71
2022/12/04 06:45:28;;;;;;;25.02;14.45;;;;;;;;;;5065516;28;20073;-73
2022/12/04 06:47:58;;;;;;;25.90;15.32;;;;;;;;;;5064011;28;20056;-73
2022/12/04 06:50:28;;;;;;;21.45;14.13;;;;;;;;;;5066025;28;20044;-73
2022/12/04 06:52:58;;;;;;;23.30;14.02;;;;;;;;;;5065968;28;20055;-72
2022/12/04 06:55:36;;;;;;;21.35;12.93;;;;;;;;;;5066049;28;20053;-72
2022/12/04 06:58:05;;;;;;;25.77;13.30;;;;;;;;;;5066270;28;20045;-72
2022/12/04 07:00:35;;;;;;;21.98;14.07;;;;;;;;;;5065886;28;20072;-73
2022/12/04 07:03:05;;;;;;;24.90;13.02;;;;;;;;;;5065951;28;20051;-75
2022/12/04 07:05:35;;;;;;;22.15;13.10;;;;;;;;;;5065769;28;20056;-72
2022/12/04 07:08:04;;;;;;;18.20;12.38;;;;;;;;;;5066074;28;20052;-72
2022/12/04 07:10:38;;;;;;;23.42;13.30;;;;;;;;;;5069182;28;20063;-71
2022/12/04 07:13:08;;;;;;;23.48;13.88;;;;;;;;;;5069339;28;20048;-73
2022/12/04 07:15:38;;;;;;;21.45;13.45;;;;;;;;;;5068936;28;20048;-72
2022/12/04 07:18:08;;;;;;;21.98;12.70;;;;;;;;;;5069372;28;20048;-73
2022/12/04 07:20:40;;;;;;;21.58;12.77;;;;;;;;;;5068677;28;20075;-73
2022/12/04 07:23:10;;;;;;;20.17;12.18;;;;;;;;;;5069358;28;20044;-72
2022/12/04 07:25:40;;;;;;;18.92;11.75;;;;;;;;;;5069251;28;20049;-72
2022/12/04 07:28:11;;;;;;;24.95;12.65;;;;;;;;;;5068630;28;20395;-72
2022/12/04 07:30:41;;;;;;;17.33;11.80;;;;;;;;;;5068265;28;20049;-73
2022/12/04 07:33:10;;;;;;;28.02;13.45;;;;;;;;;;5068286;28;20045;-73
2022/12/04 07:35:40;;;;;;;24.95;13.55;;;;;;;;;;5068672;28;20045;-72
2022/12/04 07:38:10;;;;;;;21.52;12.70;;;;;;;;;;5068780;28;20067;-72
2022/12/04 07:40:40;;;;;;;22.20;12.82;;;;;;;;;;5068732;28;20045;-73
2022/12/04 07:43:10;;;;;;;22.20;13.48;;;;;;;;;;5068401;28;20052;-72
2022/12/04 07:45:39;;;;;;;24.23;13.20;;;;;;;;;;5068850;28;20063;-72
2022/12/04 07:48:09;;;;;;;23.00;13.27;;;;;;;;;;5068962;28;20067;-73
2022/12/04 07:50:39;;;;;;;22.48;12.95;;;;;;;;;;5068169;28;20048;-73
2022/12/04 07:53:09;;;;;;;30.95;13.55;;;;;;;;;;5068152;28;20060;-73
2022/12/04 07:55:38;;;;;;;22.17;13.82;;;;;;;;;;5066830;28;20056;-72
2022/12/04 07:58:08;;;;;;;23.10;12.95;;;;;;;;;;5068410;28;20063;-73
2022/12/04 08:00:38;;;;;;;24.83;14.07;;;;;;;;;;5068281;28;20422;-73
2022/12/04 08:03:08;;;;;;;22.40;14.07;;;;;;;;;;5068075;28;20063;-72
2022/12/04 08:05:37;;;;;;;21.85;13.18;;;;;;;;;;5067883;28;20044;-72
2022/12/04 08:08:07;;;;;;;23.67;12.98;;;;;;;;;;5068895;28;20063;-73
2022/12/04 08:10:40;;;;;;;20.75;13.23;;;;;;;;;;5068185;28;20048;-73
2022/12/04 08:13:10;;;;;;;22.63;12.82;;;;;;;;;;5068256;28;20071;-72
2022/12/04 08:15:39;;;;;;;19.50;12.35;;;;;;;;;;5067792;28;20499;-73
2022/12/04 08:18:09;;;;;;;17.25;12.45;;;;;;;;;;5068109;28;20056;-72
2022/12/04 08:20:39;;;;;;;19.33;13.00;;;;;;;;;;5068064;28;20509;-72
2022/12/04 08:23:09;;;;;;;23.85;13.68;;;;;;;;;;5067576;28;20383;-73
2022/12/04 08:25:40;;;;;;;28.92;14.70;;;;;;;;;;5067615;28;20498;-72
2022/12/04 08:28:10;;;;;;;31.02;14.82;;;;;;;;;;5067457;28;20052;-72
2022/12/04 08:30:40;;;;;;;26.52;15.43;;;;;;;;;;5067793;28;20052;-73
2022/12/04 08:33:10;;;;;;;21.73;13.70;;;;;;;;;;5066068;28;20048;-72
2022/12/04 08:35:40;;;;;;;28.65;14.52;;;;;;;;;;5067547;28;20049;-73
2022/12/04 08:38:09;;;;;;;21.88;13.65;;;;;;;;;;5068124;28;20418;-72
2022/12/04 08:40:39;;;;;;;22.13;14.23;;;;;;;;;;5067624;28;20040;-73
2022/12/04 08:43:09;;;;;;;24.15;13.23;;;;;;;;;;5067216;28;20045;-72
2022/12/04 08:45:39;;;;;;;23.73;13.85;;;;;;;;;;5067399;28;20064;-73
2022/12/04 08:48:09;;;;;;;24.17;13.52;;;;;;;;;;5067123;28;20063;-72
2022/12/04 08:50:44;;;;;;;24.77;13.77;;;;;;;;;;5067655;28;20383;-72
2022/12/04 08:53:14;;;;;;;29.63;14.93;;;;;;;;;;5066798;28;20040;-73
2022/12/04 08:55:44;;;;;;;24.65;13.48;;;;;;;;;;5065338;28;20048;-73
2022/12/04 08:58:14;;;;;;;21.60;13.20;;;;;;;;;;5066868;28;20048;-73
2022/12/04 09:00:45;;;;;;;20.63;12.52;;;;;;;;;;5066933;28;20060;-72
2022/12/04 09:03:18;;;;;;;23.65;13.00;;;;;;;;;;5066991;28;20055;-72
2022/12/04 09:05:58;;;;;;;22.48;13.23;;;;;;;;;;5067211;28;20055;-73
2022/12/04 09:08:29;;;;;;;21.95;12.18;;;;;;;;;;5066933;28;20064;-72
2022/12/04 09:11:04;;;;;;;26.63;13.75;;;;;;;;;;5065810;28;20519;-72
2022/12/04 09:13:35;;;;;;;23.98;12.43;;;;;;;;;;5066962;28;20056;-72
2022/12/04 09:16:08;;;;;;;20.88;12.85;;;;;;;;;;5066299;28;20049;-73
2022/12/04 09:18:39;;;;;;;25.95;12.75;;;;;;;;;;5066676;28;20048;-73
2022/12/04 09:21:12;;;;;;;18.98;12.75;;;;;;;;;;5067292;28;20052;-74
2022/12/04 09:23:42;;;;;;;19.05;12.32;;;;;;;;;;5066999;28;20399;-72
2022/12/04 09:26:20;;;;;;;21.98;13.07;;;;;;;;;;5066568;28;20051;-73
2022/12/04 09:28:52;;;;;;;18.15;11.80;;;;;;;;;;5066419;28;20056;-72
2022/12/04 09:31:23;;;;;;;21.25;12.27;;;;;;;;;;5066501;28;20049;-73
2022/12/04 09:33:53;;;;;;;23.05;12.93;;;;;;;;;;5066728;28;20049;-72
2022/12/04 09:36:23;;;;;;;22.52;13.63;;;;;;;;;;5064607;28;20060;-72
2022/12/04 09:38:54;;;;;;;19.05;11.40;;;;;;;;;;5067053;28;20545;-71
2022/12/04 09:41:51;;;;;;;20.98;12.45;;;;;;;;;;5066033;28;20048;-73
2022/12/04 09:44:23;;;;;;;20.65;11.45;;;;;;;;;;5066585;28;20049;-73
2022/12/04 09:47:02;;;;;;;23.67;12.75;;;;;;;;;;5065891;28;20052;-73
2022/12/04 09:49:45;;;;;;;20.02;12.32;;;;;;;;;;5066129;28;20036;-72
2022/12/04 09:52:47;;;;;;;19.63;11.82;;;;;;;;;;5066556;28;20048;-73
2022/12/04 09:56:12;;;;;;;19.58;10.95;;;;;;;;;;5065993;28;20052;-74
2022/12/04 09:58:46;;;;;;;20.95;11.20;;;;;;;;;;5044600;28;20064;-72
2022/12/04 10:01:41;;;;;;;22.83;11.75;;;;;;;;;;5066249;28;20415;-73
2022/12/04 10:04:12;;;;;;;17.13;11.80;;;;;;;;;;5066028;28;20048;-73
2022/12/04 10:06:48;;;;;;;19.45;10.77;;;;;;;;;;5066488;28;20052;-73
2022/12/04 10:09:28;;;;;;;18.27;10.20;;;;;;;;;;5066498;28;20391;-73
2022/12/04 10:12:17;;;;;;;18.98;11.35;;;;;;;;;;5064057;28;20048;-74
2022/12/04 10:15:19;;;;;;;15.82;10.82;;;;;;;;;;5066137;28;20041;-73
2022/12/04 10:18:15;;;;;;;15.25;9.93;;;;;;;;;;5065863;28;20055;-74
2022/12/04 10:21:12;;;;;;;15.15;10.32;;;;;;;;;;5066495;28;20048;-72
2022/12/04 10:23:47;;;;;;;18.15;9.93;;;;;;;;;;5066132;28;20048;-73
2022/12/04 10:26:21;;;;;;;16.23;10.13;;;;;;;;;;5066357;28;20063;-73
2022/12/04 10:29:00;;;;;;;22.17;10.27;;;;;;;;;;5065903;28;20041;-71
2022/12/04 10:31:33;;;;;;;17.67;10.02;;;;;;;;;;5065750;28;20060;-73
2022/12/04 10:34:15;;;;;;;15.82;9.90;;;;;;;;;;5064253;28;20071;-74
2022/12/04 10:36:53;;;;;;;16.02;9.07;;;;;;;;;;5065857;28;20075;-73
2022/12/04 10:39:37;;;;;;;17.70;8.95;;;;;;;;;;5065777;28;20040;-72
2022/12/04 10:42:30;;;;;;;16.83;9.45;;;;;;;;;;5065395;28;20064;-72
2022/12/04 10:45:00;;;;;;;14.35;8.80;;;;;;;;;;5069542;28;20383;-73
2022/12/04 10:47:30;;;;;;;15.45;9.20;;;;;;;;;;5069877;28;20525;-74
2022/12/04 10:50:11;;;;;;;15.00;8.10;;;;;;;;;;5068987;28;20495;-73
2022/12/04 10:52:41;;;;;;;12.02;8.27;;;;;;;;;;5069746;28;20048;-74
2022/12/04 10:55:11;;;;;;;12.68;7.63;;;;;;;;;;5069352;28;20051;-72
2022/12/04 10:57:44;;;;;;;10.35;7.60;;;;;;;;;;5069285;28;20051;-74
2022/12/04 11:00:26;;;;;;;11.15;6.90;;;;;;;;;;5069346;28;20056;-74
2022/12/04 11:03:00;;;;;;;11.15;7.45;;;;;;;;;;5067741;28;20044;-73
2022/12/04 11:05:38;;;;;;;10.55;7.40;;;;;;;;;;5069721;28;20123;-74
2022/12/04 11:08:21;;;;;;;10.73;7.43;;;;;;;;;;5068094;28;20100;-75
2022/12/04 11:11:01;;;;;;;11.07;7.72;;;;;;;;;;5068829;28;20063;-74
2022/12/04 11:13:31;;;;;;;10.63;6.55;;;;;;;;;;5067681;28;20055;-73
2022/12/04 11:16:02;;;;;;;10.98;6.47;;;;;;;;;;5069598;28;20514;-73
2022/12/04 11:18:34;;;;;;;10.20;6.65;;;;;;;;;;5070155;28;20049;-72
2022/12/04 11:21:13;;;;;;;10.38;6.13;;;;;;;;;;5069553;28;20051;-74
2022/12/04 11:23:46;;;;;;;11.20;6.75;;;;;;;;;;5069316;28;20044;-74
2022/12/04 11:26:29;;;;;;;10.02;6.43;;;;;;;;;;5068582;28;20041;-74
2022/12/04 11:29:00;;;;;;;7.47;5.38;;;;;;;;;;5069085;28;20052;-75
2022/12/04 11:31:32;;;;;;;8.15;6.05;;;;;;;;;;5068472;28;20040;-72
2022/12/04 11:34:06;;;;;;;11.25;6.63;;;;;;;;;;5068773;28;20505;-74
2022/12/04 11:36:39;;;;;;;8.93;5.75;;;;;;;;;;5068770;28;20057;-73
2022/12/04 11:39:14;;;;;;;9.55;6.93;;;;;;;;;;5069050;28;20529;-72
2022/12/04 11:41:44;;;;;;;10.43;6.85;;;;;;;;;;5068655;28;20036;-74
2022/12/04 11:44:28;;;;;;;9.68;6.50;;;;;;;;;;5068295;28;20055;-75
2022/12/04 11:47:01;;;;;;;14.52;6.95;;;;;;;;;;5069209;28;20059;-73
2022/12/04 11:49:32;;;;;;;8.70;6.18;;;;;;;;;;5068504;28;20048;-73
2022/12/04 11:52:29;;;;;;;8.60;6.25;;;;;;;;;;5068030;28;20047;-73
2022/12/04 11:55:58;;;;;;;11.15;6.03;;;;;;;;;;5068106;28;20067;-74
2022/12/04 11:58:45;;;;;;;9.55;5.88;;;;;;;;;;5005900;28;20521;-73
2022/12/04 12:01:29;;;;;;;11.98;6.75;;;;;;;;;;5005794;28;20516;-74
2022/12/04 12:04:16;;;;;;;11.55;6.70;;;;;;;;;;5052592;28;20052;-73
2022/12/04 12:07:14;;;;;;;9.20;6.03;;;;;;;;;;5068115;28;20399;-74
2022/12/04 12:09:51;;;;;;;9.13;5.55;;;;;;;;;;5068679;28;20045;-73
2022/12/04 12:12:40;;;;;;;10.65;5.90;;;;;;;;;;5067662;28;20063;-75
2022/12/04 12:15:25;;;;;;;;;;;;;;;;;;5068243;28;20044;-73
2022/12/04 12:18:11;;;;;;;8.05;5.57;;;;;;;;;;5068055;28;19927;-74
2022/12/04 12:21:12;;;;;;;7.97;5.95;;;;;;;;;;5067592;28;20102;-73
2022/12/04 12:23:57;;;;;;;9.35;5.97;;;;;;;;;;5067447;28;20055;-80
2022/12/04 12:26:39;;;;;;;8.27;5.60;;;;;;;;;;5068113;28;20048;-73
2022/12/04 12:29:35;;;;;;;12.30;5.45;;;;;;;;;;5067529;28;21012;-75
2022/12/04 12:32:14;;;;;;;9.93;6.10;;;;;;;;;;5045898;28;20063;-73
2022/12/04 12:34:46;;;;;;;8.75;5.38;;;;;;;;;;5086315;28;20045;-73
2022/12/04 12:37:26;;;;;;;10.93;6.72;;;;;;;;;;5088059;28;20044;-77
2022/12/04 12:39:58;;;;;;;9.93;6.28;;;;;;;;;;5087664;28;20054;-75
2022/12/04 12:42:39;;;;;;;8.57;5.60;;;;;;;;;;5087275;28;20047;-74
2022/12/04 12:45:18;;;;;;;10.40;6.32;;;;;;;;;;5087622;28;20521;-80
2022/12/04 12:47:54;;;;;;;8.85;6.47;;;;;;;;;;5087520;28;20040;-76
2022/12/04 12:50:34;;;;;;;9.77;6.32;;;;;;;;;;5087139;28;20537;-75
2022/12/04 12:53:15;;;;;;;11.02;6.63;;;;;;;;;;5087272;28;20051;-74
2022/12/04 12:55:59;;;;;;;8.75;6.05;;;;;;;;;;5085791;28;20103;-77
2022/12/04 12:58:52;;;;;;;10.30;7.05;;;;;;;;;;5087208;28;20044;-76
2022/12/04 13:01:46;;;;;;;8.70;6.88;;;;;;;;;;5067340;28;20052;-73
2022/12/04 13:04:19;;;;;;;9.20;7.05;;;;;;;;;;5066330;28;20056;-77
2022/12/04 13:07:01;;;;;;;7.68;5.65;;;;;;;;;;5066308;28;20044;-77
2022/12/04 13:09:34;;;;;;;7.90;5.28;;;;;;;;;;5066172;28;20059;-75
2022/12/04 13:12:11;;;;;;;7.65;5.00;;;;;;;;;;5066591;28;20048;-77
2022/12/04 13:14:41;;;;;;;7.78;5.38;;;;;;;;;;5065167;28;20055;-76
2022/12/04 13:17:28;;;;;;;7.03;5.30;;;;;;;;;;5065191;28;20064;-73
2022/12/04 13:20:01;;;;;;;6.78;4.75;;;;;;;;;;5066676;28;20044;-79
2022/12/04 13:23:25;;;;;;;7.95;4.68;;;;;;;;;;5066851;28;20051;-75
2022/12/04 13:25:57;;;;;;;8.73;4.95;;;;;;;;;;5020704;28;20052;-77
2022/12/04 13:29:13;;;;;;;8.80;4.43;;;;;;;;;;5067085;28;20847;-76
2022/12/04 13:31:57;;;;;;;7.10;4.63;;;;;;;;;;5066321;28;20051;-75
2022/12/04 13:34:57;;;;;;;8.45;5.18;;;;;;;;;;5064380;28;20063;-75
2022/12/04 13:37:46;;;;;;;8.10;4.35;;;;;;;;;;5066136;28;20045;-75
2022/12/04 13:40:28;;;;;;;8.10;4.43;;;;;;;;;;5067046;28;20049;-76
2022/12/04 13:43:22;;;;;;;8.65;4.30;;;;;;;;;;5066600;28;20044;-75
2022/12/04 13:45:55;;;;;;;9.07;4.07;;;;;;;;;;5067495;28;20495;-75
2022/12/04 13:48:35;;;;;;;8.38;4.10;;;;;;;;;;5066814;28;20055;-76
2022/12/04 13:51:13;;;;;;;8.55;3.80;;;;;;;;;;5066418;28;20064;-81
2022/12/04 13:53:43;;;;;;;9.23;3.88;;;;;;;;;;5066774;28;20499;-76
2022/12/04 13:56:30;;;;;;;9.07;3.92;;;;;;;;;;5066133;28;20055;-74
2022/12/04 13:59:21;;;;;;;7.93;4.10;;;;;;;;;;5065995;28;20052;-75
2022/12/04 14:01:56;;;;;;;7.13;4.13;;;;;;;;;;5065057;28;20788;-75
2022/12/04 14:04:44;;;;;;;5.53;4.00;;;;;;;;;;5063015;28;20056;-76
2022/12/04 14:07:38;;;;;;;9.27;3.55;;;;;;;;;;5065162;28;20044;-75
2022/12/04 14:10:27;;;;;;;8.18;4.00;;;;;;;;;;5065181;28;20411;-78
2022/12/04 14:13:22;;;;;;;10.32;3.38;;;;;;;;;;5066218;28;20048;-78
2022/12/04 14:16:21;;;;;;;6.72;3.70;;;;;;;;;;5030967;28;20419;-75
2022/12/04 14:18:55;;;;;;;6.57;3.78;;;;;;;;;;5070253;28;20553;-74
2022/12/04 14:21:36;;;;;;;6.78;3.78;;;;;;;;;;5089606;28;20051;-75
2022/12/04 14:24:17;;;;;;;5.75;3.30;;;;;;;;;;5086229;28;20040;-75
2022/12/04 14:26:51;;;;;;;7.10;3.78;;;;;;;;;;5087335;28;20040;-75
2022/12/04 14:29:48;;;;;;;8.90;3.40;;;;;;;;;;5073658;28;20040;-74
2022/12/04 14:32:25;;;;;;;8.82;3.92;;;;;;;;;;5089538;28;20048;-74
2022/12/04 14:34:56;;;;;;;7.78;3.50;;;;;;;;;;5089434;28;20040;-74
2022/12/04 14:37:33;;;;;;;6.15;3.42;;;;;;;;;;5090008;28;20818;-75
2022/12/04 14:40:15;;;;;;;6.57;3.28;;;;;;;;;;5089547;28;20406;-75
2022/12/04 14:42:48;;;;;;;6.57;3.95;;;;;;;;;;5088252;28;20052;-74
2022/12/04 14:45:46;;;;;;;8.95;4.32;;;;;;;;;;5089931;28;20044;-75
2022/12/04 14:48:57;;;;;;;8.43;3.70;;;;;;;;;;5082888;28;20114;-75
2022/12/04 14:51:52;;;;;;;6.68;3.33;;;;;;;;;;5041412;28;20060;-80
2022/12/04 14:55:04;;;;;;;6.30;4.00;;;;;;;;;;5089328;28;20383;-81
2022/12/04 14:57:58;;;;;;;6.93;3.75;;;;;;;;;;5087541;28;20056;-74
2022/12/04 15:00:28;;;;;;;6.50;4.10;;;;;;;;;;5088260;28;20059;-79
2022/12/04 15:02:59;;;;;;;11.15;4.70;;;;;;;;;;5086594;28;20445;-77
2022/12/04 15:05:31;;;;;;;9.80;4.57;;;;;;;;;;5090013;28;20055;-76
2022/12/04 15:08:04;;;;;;;6.45;3.80;;;;;;;;;;5089213;28;20048;-75
2022/12/04 15:13:32;;;;;;;6.28;4.07;;;;;;;;;;5089226;28;20069;-75
2022/12/04 15:16:20;;;;;;;7.80;4.90;;;;;;;;;;5089278;28;20048;-78
2022/12/04 15:18:58;;;;;;;8.77;4.35;;;;;;;;;;5090001;28;20052;-77
2022/12/04 15:21:39;;;;;;;9.48;5.43;;;;;;;;;;5089189;28;20058;-76
2022/12/04 15:24:19;;;;;;;11.95;4.82;;;;;;;;;;5088578;28;20059;-74
2022/12/04 15:26:51;;;;;;;8.82;5.05;;;;;;;;;;5088567;28;20051;-75
2022/12/04 15:29:40;;;;;;;8.35;4.70;;;;;;;;;;5067595;28;20048;-75
2022/12/04 15:32:12;;;;;;;8.23;4.95;;;;;;;;;;5067136;28;20033;-75
2022/12/04 15:34:48;;;;;;;7.20;4.50;;;;;;;;;;5068504;28;20036;-75
2022/12/04 15:37:23;;;;;;;9.07;4.90;;;;;;;;;;5067781;28;20499;-77
2022/12/04 15:39:55;;;;;;;9.18;4.97;;;;;;;;;;5068283;28;20053;-74
2022/12/04 15:42:39;;;;;;;8.65;4.80;;;;;;;;;;5069212;28;20055;-77